sensor_id;sensor_type;location;lat;lon;timestamp;P1;durP1;ratioP1;P2;durP2;ratioP2
12129;SDS011;6128;59.340;18.040;2023-11-19T00:02:25;0.90;;;0.90;;
12129;SDS011;6128;59.340;18.040;2023-11-19T00:04:53;0.80;;;0.80;;
12129;SDS011;6128;59.340;18.040;2023-11-19T00:07:20;1.13;;;1.03;;
12129;SDS011;6128;59.340;18.040;2023-11-19T00:09:47;1.57;;;0.87;;
12129;SDS011;6128;59.340;18.040;2023-11-19T00:12:15;1.27;;;1.10;;
12129;SDS011;6128;59.340;18.040;2023-11-19T00:14:42;1.10;;;1.00;;
12129;SDS011;6128;59.340;18.040;2023-11-19T00:17:11;2.37;;;0.90;;
12129;SDS011;6128;59.340;18.040;2023-11-19T00:19:38;3.17;;;1.20;;
12129;SDS011;6128;59.340;18.040;2023-11-19T00:22:05;1.17;;;1.10;;
12129;SDS011;6128;59.340;18.040;2023-11-19T00:24:32;1.53;;;1.00;;
12129;SDS011;6128;59.340;18.040;2023-11-19T00:27:01;0.90;;;0.90;;
12129;SDS011;6128;59.340;18.040;2023-11-19T00:29:28;1.13;;;1.03;;
12129;SDS011;6128;59.340;18.040;2023-11-19T00:31:56;1.10;;;1.00;;
12129;SDS011;6128;59.340;18.040;2023-11-19T00:34:24;1.83;;;1.20;;
12129;SDS011;6128;59.340;18.040;2023-11-19T00:36:51;0.83;;;0.83;;
12129;SDS011;6128;59.340;18.040;2023-11-19T00:39:20;1.13;;;0.90;;
12129;SDS011;6128;59.340;18.040;2023-11-19T00:41:47;0.70;;;0.70;;
12129;SDS011;6128;59.340;18.040;2023-11-19T00:44:14;0.93;;;0.90;;
12129;SDS011;6128;59.340;18.040;2023-11-19T00:46:41;0.77;;;0.77;;
12129;SDS011;6128;59.340;18.040;2023-11-19T00:49:09;0.80;;;0.80;;
12129;SDS011;6128;59.340;18.040;2023-11-19T00:51:38;1.10;;;0.90;;
12129;SDS011;6128;59.340;18.040;2023-11-19T00:54:05;1.20;;;1.10;;
12129;SDS011;6128;59.340;18.040;2023-11-19T00:56:32;0.73;;;0.73;;
12129;SDS011;6128;59.340;18.040;2023-11-19T00:58:59;0.70;;;0.70;;
12129;SDS011;6128;59.340;18.040;2023-11-19T01:01:27;1.20;;;1.10;;
12129;SDS011;6128;59.340;18.040;2023-11-19T01:03:54;0.70;;;0.70;;
12129;SDS011;6128;59.340;18.040;2023-11-19T01:06:28;1.50;;;0.70;;
12129;SDS011;6128;59.340;18.040;2023-11-19T01:08:57;0.83;;;0.83;;
12129;SDS011;6128;59.340;18.040;2023-11-19T01:11:25;0.93;;;0.90;;
12129;SDS011;6128;59.340;18.040;2023-11-19T01:13:53;0.97;;;0.93;;
12129;SDS011;6128;59.340;18.040;2023-11-19T01:16:22;1.13;;;1.03;;
12129;SDS011;6128;59.340;18.040;2023-11-19T01:18:49;1.17;;;1.03;;
12129;SDS011;6128;59.340;18.040;2023-11-19T01:21:17;0.90;;;0.90;;
12129;SDS011;6128;59.340;18.040;2023-11-19T01:23:44;1.10;;;1.00;;
12129;SDS011;6128;59.340;18.040;2023-11-19T01:26:16;1.67;;;1.20;;
12129;SDS011;6128;59.340;18.040;2023-11-19T01:28:44;1.33;;;0.90;;
12129;SDS011;6128;59.340;18.040;2023-11-19T01:31:12;0.80;;;0.80;;
12129;SDS011;6128;59.340;18.040;2023-11-19T01:33:43;0.70;;;0.70;;
12129;SDS011;6128;59.340;18.040;2023-11-19T01:36:12;0.83;;;0.83;;
12129;SDS011;6128;59.340;18.040;2023-11-19T01:38:40;1.77;;;1.10;;
12129;SDS011;6128;59.340;18.040;2023-11-19T01:41:08;0.83;;;0.80;;
12129;SDS011;6128;59.340;18.040;2023-11-19T01:43:37;1.03;;;1.03;;
12129;SDS011;6128;59.340;18.040;2023-11-19T01:46:06;0.90;;;0.90;;
12129;SDS011;6128;59.340;18.040;2023-11-19T01:48:35;0.87;;;0.87;;
12129;SDS011;6128;59.340;18.040;2023-11-19T01:51:07;1.03;;;0.83;;
12129;SDS011;6128;59.340;18.040;2023-11-19T01:53:35;1.07;;;0.97;;
12129;SDS011;6128;59.340;18.040;2023-11-19T01:56:04;1.20;;;1.10;;
12129;SDS011;6128;59.340;18.040;2023-11-19T01:58:34;1.70;;;1.07;;
12129;SDS011;6128;59.340;18.040;2023-11-19T02:01:03;1.10;;;1.00;;
12129;SDS011;6128;59.340;18.040;2023-11-19T02:03:32;1.10;;;1.10;;
12129;SDS011;6128;59.340;18.040;2023-11-19T02:06:00;1.20;;;1.20;;
12129;SDS011;6128;59.340;18.040;2023-11-19T02:08:28;1.40;;;0.97;;
12129;SDS011;6128;59.340;18.040;2023-11-19T02:10:56;1.20;;;1.10;;
12129;SDS011;6128;59.340;18.040;2023-11-19T02:13:23;1.07;;;0.97;;
12129;SDS011;6128;59.340;18.040;2023-11-19T02:15:50;0.97;;;0.97;;
12129;SDS011;6128;59.340;18.040;2023-11-19T02:18:20;1.00;;;0.73;;
12129;SDS011;6128;59.340;18.040;2023-11-19T02:20:48;0.90;;;0.90;;
12129;SDS011;6128;59.340;18.040;2023-11-19T02:23:15;1.20;;;1.10;;
12129;SDS011;6128;59.340;18.040;2023-11-19T02:25:45;1.07;;;0.97;;
12129;SDS011;6128;59.340;18.040;2023-11-19T02:28:19;0.80;;;0.80;;
12129;SDS011;6128;59.340;18.040;2023-11-19T02:30:47;0.97;;;0.83;;
12129;SDS011;6128;59.340;18.040;2023-11-19T02:33:14;1.07;;;0.97;;
12129;SDS011;6128;59.340;18.040;2023-11-19T02:35:41;1.50;;;0.70;;
12129;SDS011;6128;59.340;18.040;2023-11-19T02:38:08;1.13;;;0.93;;
12129;SDS011;6128;59.340;18.040;2023-11-19T02:40:36;0.70;;;0.70;;
12129;SDS011;6128;59.340;18.040;2023-11-19T02:43:03;0.77;;;0.77;;
12129;SDS011;6128;59.340;18.040;2023-11-19T02:45:32;2.10;;;0.87;;
12129;SDS011;6128;59.340;18.040;2023-11-19T02:47:59;0.90;;;0.90;;
12129;SDS011;6128;59.340;18.040;2023-11-19T02:50:28;1.10;;;1.00;;
12129;SDS011;6128;59.340;18.040;2023-11-19T02:52:56;0.97;;;0.97;;
12129;SDS011;6128;59.340;18.040;2023-11-19T02:55:23;1.50;;;1.03;;
12129;SDS011;6128;59.340;18.040;2023-11-19T02:57:52;1.23;;;1.13;;
12129;SDS011;6128;59.340;18.040;2023-11-19T03:00:21;1.43;;;0.90;;
12129;SDS011;6128;59.340;18.040;2023-11-19T03:02:54;1.00;;;0.93;;
12129;SDS011;6128;59.340;18.040;2023-11-19T03:05:25;0.80;;;0.80;;
12129;SDS011;6128;59.340;18.040;2023-11-19T03:07:57;1.30;;;1.20;;
12129;SDS011;6128;59.340;18.040;2023-11-19T03:10:24;1.37;;;1.10;;
12129;SDS011;6128;59.340;18.040;2023-11-19T03:12:51;0.90;;;0.90;;
12129;SDS011;6128;59.340;18.040;2023-11-19T03:15:20;1.03;;;1.00;;
12129;SDS011;6128;59.340;18.040;2023-11-19T03:17:47;2.20;;;1.07;;
12129;SDS011;6128;59.340;18.040;2023-11-19T03:20:16;1.27;;;1.17;;
12129;SDS011;6128;59.340;18.040;2023-11-19T03:22:43;1.20;;;1.10;;
12129;SDS011;6128;59.340;18.040;2023-11-19T03:25:10;1.60;;;1.10;;
12129;SDS011;6128;59.340;18.040;2023-11-19T03:27:38;0.97;;;0.83;;
12129;SDS011;6128;59.340;18.040;2023-11-19T03:30:07;1.40;;;1.30;;
12129;SDS011;6128;59.340;18.040;2023-11-19T03:32:35;1.97;;;1.10;;
12129;SDS011;6128;59.340;18.040;2023-11-19T03:35:06;1.10;;;1.10;;
12129;SDS011;6128;59.340;18.040;2023-11-19T03:37:36;1.17;;;1.10;;
12129;SDS011;6128;59.340;18.040;2023-11-19T03:40:05;1.50;;;1.30;;
12129;SDS011;6128;59.340;18.040;2023-11-19T03:42:33;1.63;;;1.30;;
12129;SDS011;6128;59.340;18.040;2023-11-19T03:45:00;1.00;;;1.00;;
12129;SDS011;6128;59.340;18.040;2023-11-19T03:47:30;1.33;;;1.23;;
12129;SDS011;6128;59.340;18.040;2023-11-19T03:49:57;1.50;;;1.40;;
12129;SDS011;6128;59.340;18.040;2023-11-19T03:52:27;1.50;;;1.40;;
12129;SDS011;6128;59.340;18.040;2023-11-19T03:54:56;1.40;;;1.30;;
12129;SDS011;6128;59.340;18.040;2023-11-19T03:57:24;1.13;;;1.10;;
12129;SDS011;6128;59.340;18.040;2023-11-19T03:59:51;1.40;;;1.30;;
12129;SDS011;6128;59.340;18.040;2023-11-19T04:02:18;1.50;;;1.33;;
12129;SDS011;6128;59.340;18.040;2023-11-19T04:04:45;1.53;;;1.43;;
12129;SDS011;6128;59.340;18.040;2023-11-19T04:07:13;1.47;;;1.37;;
12129;SDS011;6128;59.340;18.040;2023-11-19T04:09:40;1.50;;;1.40;;
12129;SDS011;6128;59.340;18.040;2023-11-19T04:12:09;1.23;;;1.13;;
12129;SDS011;6128;59.340;18.040;2023-11-19T04:14:36;1.50;;;1.40;;
12129;SDS011;6128;59.340;18.040;2023-11-19T04:17:03;1.40;;;1.30;;
12129;SDS011;6128;59.340;18.040;2023-11-19T04:19:30;1.40;;;1.30;;
12129;SDS011;6128;59.340;18.040;2023-11-19T04:21:58;1.40;;;1.30;;
12129;SDS011;6128;59.340;18.040;2023-11-19T04:24:25;1.93;;;1.33;;
12129;SDS011;6128;59.340;18.040;2023-11-19T04:26:53;1.47;;;1.37;;
12129;SDS011;6128;59.340;18.040;2023-11-19T04:29:21;1.93;;;1.43;;
12129;SDS011;6128;59.340;18.040;2023-11-19T04:31:48;1.57;;;1.47;;
12129;SDS011;6128;59.340;18.040;2023-11-19T04:34:15;1.40;;;1.30;;
12129;SDS011;6128;59.340;18.040;2023-11-19T04:36:43;1.30;;;1.23;;
12129;SDS011;6128;59.340;18.040;2023-11-19T04:39:10;1.40;;;1.30;;
12129;SDS011;6128;59.340;18.040;2023-11-19T04:41:45;1.60;;;1.50;;
12129;SDS011;6128;59.340;18.040;2023-11-19T04:44:13;1.53;;;1.43;;
12129;SDS011;6128;59.340;18.040;2023-11-19T04:46:44;1.70;;;1.60;;
12129;SDS011;6128;59.340;18.040;2023-11-19T04:49:12;1.57;;;1.47;;
12129;SDS011;6128;59.340;18.040;2023-11-19T04:51:39;1.60;;;1.50;;
12129;SDS011;6128;59.340;18.040;2023-11-19T04:54:08;1.60;;;1.50;;
12129;SDS011;6128;59.340;18.040;2023-11-19T04:56:35;2.50;;;1.70;;
12129;SDS011;6128;59.340;18.040;2023-11-19T04:59:02;1.50;;;1.40;;
12129;SDS011;6128;59.340;18.040;2023-11-19T05:01:30;1.93;;;1.83;;
12129;SDS011;6128;59.340;18.040;2023-11-19T05:03:59;2.93;;;1.50;;
12129;SDS011;6128;59.340;18.040;2023-11-19T05:06:27;1.20;;;1.20;;
12129;SDS011;6128;59.340;18.040;2023-11-19T05:08:55;1.53;;;1.43;;
12129;SDS011;6128;59.340;18.040;2023-11-19T05:11:22;1.60;;;1.50;;
12129;SDS011;6128;59.340;18.040;2023-11-19T05:13:49;1.40;;;1.30;;
12129;SDS011;6128;59.340;18.040;2023-11-19T05:16:18;1.37;;;1.27;;
12129;SDS011;6128;59.340;18.040;2023-11-19T05:18:46;1.63;;;1.40;;
12129;SDS011;6128;59.340;18.040;2023-11-19T05:21:15;1.73;;;1.63;;
12129;SDS011;6128;59.340;18.040;2023-11-19T05:23:45;1.63;;;1.53;;
12129;SDS011;6128;59.340;18.040;2023-11-19T05:26:17;1.50;;;1.40;;
12129;SDS011;6128;59.340;18.040;2023-11-19T05:28:45;2.17;;;1.57;;
12129;SDS011;6128;59.340;18.040;2023-11-19T05:31:16;1.27;;;1.23;;
12129;SDS011;6128;59.340;18.040;2023-11-19T05:33:44;1.30;;;1.20;;
12129;SDS011;6128;59.340;18.040;2023-11-19T05:36:11;1.70;;;1.60;;
12129;SDS011;6128;59.340;18.040;2023-11-19T05:38:40;1.47;;;1.27;;
12129;SDS011;6128;59.340;18.040;2023-11-19T05:41:07;1.70;;;1.60;;
12129;SDS011;6128;59.340;18.040;2023-11-19T05:43:34;1.50;;;1.40;;
12129;SDS011;6128;59.340;18.040;2023-11-19T05:46:02;1.70;;;1.40;;
12129;SDS011;6128;59.340;18.040;2023-11-19T05:48:30;1.40;;;1.30;;
12129;SDS011;6128;59.340;18.040;2023-11-19T05:50:58;1.43;;;1.33;;
12129;SDS011;6128;59.340;18.040;2023-11-19T05:53:27;1.40;;;1.30;;
12129;SDS011;6128;59.340;18.040;2023-11-19T05:56:00;1.47;;;1.37;;
12129;SDS011;6128;59.340;18.040;2023-11-19T05:58:29;2.13;;;1.73;;
12129;SDS011;6128;59.340;18.040;2023-11-19T06:00:57;1.63;;;1.30;;
12129;SDS011;6128;59.340;18.040;2023-11-19T06:03:26;1.30;;;1.30;;
12129;SDS011;6128;59.340;18.040;2023-11-19T06:05:53;1.40;;;1.30;;
12129;SDS011;6128;59.340;18.040;2023-11-19T06:08:20;1.50;;;1.40;;
12129;SDS011;6128;59.340;18.040;2023-11-19T06:10:47;1.53;;;1.40;;
12129;SDS011;6128;59.340;18.040;2023-11-19T06:13:20;2.17;;;1.33;;
12129;SDS011;6128;59.340;18.040;2023-11-19T06:15:47;2.90;;;1.70;;
12129;SDS011;6128;59.340;18.040;2023-11-19T06:18:16;1.87;;;1.27;;
12129;SDS011;6128;59.340;18.040;2023-11-19T06:20:45;2.20;;;1.57;;
12129;SDS011;6128;59.340;18.040;2023-11-19T06:23:12;1.67;;;1.57;;
12129;SDS011;6128;59.340;18.040;2023-11-19T06:25:39;1.57;;;1.47;;
12129;SDS011;6128;59.340;18.040;2023-11-19T06:28:06;2.20;;;1.40;;
12129;SDS011;6128;59.340;18.040;2023-11-19T06:30:35;1.63;;;1.40;;
12129;SDS011;6128;59.340;18.040;2023-11-19T06:33:04;1.63;;;1.53;;
12129;SDS011;6128;59.340;18.040;2023-11-19T06:35:31;1.90;;;1.70;;
12129;SDS011;6128;59.340;18.040;2023-11-19T06:38:01;1.53;;;1.43;;
12129;SDS011;6128;59.340;18.040;2023-11-19T06:40:29;1.90;;;1.40;;
12129;SDS011;6128;59.340;18.040;2023-11-19T06:42:56;1.40;;;1.30;;
12129;SDS011;6128;59.340;18.040;2023-11-19T06:45:24;1.17;;;1.17;;
12129;SDS011;6128;59.340;18.040;2023-11-19T06:47:52;1.50;;;1.40;;
12129;SDS011;6128;59.340;18.040;2023-11-19T06:50:19;1.60;;;1.40;;
12129;SDS011;6128;59.340;18.040;2023-11-19T06:52:46;1.33;;;1.23;;
12129;SDS011;6128;59.340;18.040;2023-11-19T06:55:13;1.60;;;1.50;;
12129;SDS011;6128;59.340;18.040;2023-11-19T06:57:42;1.60;;;1.50;;
12129;SDS011;6128;59.340;18.040;2023-11-19T07:00:09;1.70;;;1.50;;
12129;SDS011;6128;59.340;18.040;2023-11-19T07:02:37;1.23;;;1.13;;
12129;SDS011;6128;59.340;18.040;2023-11-19T07:05:07;1.57;;;1.47;;
12129;SDS011;6128;59.340;18.040;2023-11-19T07:07:34;1.50;;;1.40;;
12129;SDS011;6128;59.340;18.040;2023-11-19T07:10:01;1.23;;;1.17;;
12129;SDS011;6128;59.340;18.040;2023-11-19T07:12:29;2.10;;;1.83;;
12129;SDS011;6128;59.340;18.040;2023-11-19T07:14:56;4.03;;;3.53;;
12129;SDS011;6128;59.340;18.040;2023-11-19T07:17:24;2.53;;;2.27;;
12129;SDS011;6128;59.340;18.040;2023-11-19T07:19:51;4.07;;;3.17;;
12129;SDS011;6128;59.340;18.040;2023-11-19T07:22:19;2.10;;;1.90;;
12129;SDS011;6128;59.340;18.040;2023-11-19T07:24:46;2.47;;;2.27;;
12129;SDS011;6128;59.340;18.040;2023-11-19T07:27:13;1.73;;;1.63;;
12129;SDS011;6128;59.340;18.040;2023-11-19T07:29:43;2.27;;;1.60;;
12129;SDS011;6128;59.340;18.040;2023-11-19T07:32:10;2.40;;;1.70;;
12129;SDS011;6128;59.340;18.040;2023-11-19T07:34:38;2.00;;;1.60;;
12129;SDS011;6128;59.340;18.040;2023-11-19T07:37:06;1.73;;;1.63;;
12129;SDS011;6128;59.340;18.040;2023-11-19T07:39:34;1.63;;;1.53;;
12129;SDS011;6128;59.340;18.040;2023-11-19T07:42:03;2.53;;;1.50;;
12129;SDS011;6128;59.340;18.040;2023-11-19T07:44:30;1.57;;;1.47;;
12129;SDS011;6128;59.340;18.040;2023-11-19T07:46:57;1.70;;;1.60;;
12129;SDS011;6128;59.340;18.040;2023-11-19T07:49:24;1.50;;;1.40;;
12129;SDS011;6128;59.340;18.040;2023-11-19T07:51:51;2.43;;;1.93;;
12129;SDS011;6128;59.340;18.040;2023-11-19T07:54:18;2.43;;;2.23;;
12129;SDS011;6128;59.340;18.040;2023-11-19T07:56:47;2.40;;;2.20;;
12129;SDS011;6128;59.340;18.040;2023-11-19T07:59:15;1.73;;;1.63;;
12129;SDS011;6128;59.340;18.040;2023-11-19T08:01:42;2.13;;;1.90;;
12129;SDS011;6128;59.340;18.040;2023-11-19T08:04:09;3.37;;;1.77;;
12129;SDS011;6128;59.340;18.040;2023-11-19T08:06:37;2.40;;;1.63;;
12129;SDS011;6128;59.340;18.040;2023-11-19T08:09:04;2.17;;;1.97;;
12129;SDS011;6128;59.340;18.040;2023-11-19T08:11:31;1.60;;;1.50;;
12129;SDS011;6128;59.340;18.040;2023-11-19T08:14:00;1.70;;;1.60;;
12129;SDS011;6128;59.340;18.040;2023-11-19T08:16:28;1.90;;;1.80;;
12129;SDS011;6128;59.340;18.040;2023-11-19T08:18:55;1.80;;;1.70;;
12129;SDS011;6128;59.340;18.040;2023-11-19T08:21:24;2.07;;;1.87;;
12129;SDS011;6128;59.340;18.040;2023-11-19T08:23:52;2.17;;;1.63;;
12129;SDS011;6128;59.340;18.040;2023-11-19T08:26:19;3.63;;;2.00;;
12129;SDS011;6128;59.340;18.040;2023-11-19T08:28:46;2.50;;;2.30;;
12129;SDS011;6128;59.340;18.040;2023-11-19T08:31:15;2.17;;;2.07;;
12129;SDS011;6128;59.340;18.040;2023-11-19T08:33:42;2.17;;;1.97;;
12129;SDS011;6128;59.340;18.040;2023-11-19T08:36:14;2.63;;;2.10;;
12129;SDS011;6128;59.340;18.040;2023-11-19T08:38:42;2.27;;;2.07;;
12129;SDS011;6128;59.340;18.040;2023-11-19T08:41:09;1.83;;;1.73;;
12129;SDS011;6128;59.340;18.040;2023-11-19T08:43:36;2.10;;;2.00;;
12129;SDS011;6128;59.340;18.040;2023-11-19T08:46:04;2.10;;;1.90;;
12129;SDS011;6128;59.340;18.040;2023-11-19T08:48:37;2.60;;;2.40;;
12129;SDS011;6128;59.340;18.040;2023-11-19T08:51:05;3.13;;;2.07;;
12129;SDS011;6128;59.340;18.040;2023-11-19T08:53:32;1.80;;;1.70;;
12129;SDS011;6128;59.340;18.040;2023-11-19T08:55:59;2.03;;;1.90;;
12129;SDS011;6128;59.340;18.040;2023-11-19T08:58:28;2.03;;;1.90;;
12129;SDS011;6128;59.340;18.040;2023-11-19T09:00:55;2.00;;;1.90;;
12129;SDS011;6128;59.340;18.040;2023-11-19T09:03:22;1.80;;;1.70;;
12129;SDS011;6128;59.340;18.040;2023-11-19T09:05:52;2.93;;;1.90;;
12129;SDS011;6128;59.340;18.040;2023-11-19T09:08:20;2.33;;;2.17;;
12129;SDS011;6128;59.340;18.040;2023-11-19T09:10:47;1.67;;;1.57;;
12129;SDS011;6128;59.340;18.040;2023-11-19T09:13:14;3.47;;;1.90;;
12129;SDS011;6128;59.340;18.040;2023-11-19T09:15:41;2.97;;;1.70;;
12129;SDS011;6128;59.340;18.040;2023-11-19T09:18:08;3.43;;;2.30;;
12129;SDS011;6128;59.340;18.040;2023-11-19T09:20:35;1.90;;;1.80;;
12129;SDS011;6128;59.340;18.040;2023-11-19T09:23:05;2.03;;;1.93;;
12129;SDS011;6128;59.340;18.040;2023-11-19T09:25:34;2.10;;;2.00;;
12129;SDS011;6128;59.340;18.040;2023-11-19T09:28:01;1.80;;;1.70;;
12129;SDS011;6128;59.340;18.040;2023-11-19T09:30:28;1.93;;;1.83;;
12129;SDS011;6128;59.340;18.040;2023-11-19T09:32:55;3.00;;;2.00;;
12129;SDS011;6128;59.340;18.040;2023-11-19T09:35:23;1.70;;;1.60;;
12129;SDS011;6128;59.340;18.040;2023-11-19T09:37:50;2.07;;;1.80;;
12129;SDS011;6128;59.340;18.040;2023-11-19T09:40:19;2.30;;;2.10;;
12129;SDS011;6128;59.340;18.040;2023-11-19T09:42:47;2.20;;;2.00;;
12129;SDS011;6128;59.340;18.040;2023-11-19T09:45:14;2.63;;;2.00;;
12129;SDS011;6128;59.340;18.040;2023-11-19T09:47:43;1.97;;;1.87;;
12129;SDS011;6128;59.340;18.040;2023-11-19T09:50:12;1.97;;;1.80;;
12129;SDS011;6128;59.340;18.040;2023-11-19T09:52:42;4.33;;;3.00;;
12129;SDS011;6128;59.340;18.040;2023-11-19T09:55:10;4.00;;;2.47;;
12129;SDS011;6128;59.340;18.040;2023-11-19T09:57:39;1.93;;;1.83;;
12129;SDS011;6128;59.340;18.040;2023-11-19T10:00:08;2.50;;;1.90;;
12129;SDS011;6128;59.340;18.040;2023-11-19T10:02:37;2.50;;;2.23;;
12129;SDS011;6128;59.340;18.040;2023-11-19T10:05:07;2.83;;;2.27;;
12129;SDS011;6128;59.340;18.040;2023-11-19T10:07:35;2.30;;;2.10;;
12129;SDS011;6128;59.340;18.040;2023-11-19T10:10:03;2.97;;;2.07;;
12129;SDS011;6128;59.340;18.040;2023-11-19T10:12:31;2.70;;;2.33;;
12129;SDS011;6128;59.340;18.040;2023-11-19T10:15:00;3.47;;;2.70;;
12129;SDS011;6128;59.340;18.040;2023-11-19T10:17:27;3.40;;;3.10;;
12129;SDS011;6128;59.340;18.040;2023-11-19T10:19:55;3.07;;;2.50;;
12129;SDS011;6128;59.340;18.040;2023-11-19T10:22:22;2.90;;;2.20;;
12129;SDS011;6128;59.340;18.040;2023-11-19T10:24:51;2.53;;;2.33;;
12129;SDS011;6128;59.340;18.040;2023-11-19T10:27:19;3.10;;;2.80;;
12129;SDS011;6128;59.340;18.040;2023-11-19T10:29:46;2.90;;;2.63;;
12129;SDS011;6128;59.340;18.040;2023-11-19T10:32:16;3.10;;;2.80;;
12129;SDS011;6128;59.340;18.040;2023-11-19T10:34:43;2.90;;;2.33;;
12129;SDS011;6128;59.340;18.040;2023-11-19T10:37:11;2.53;;;2.33;;
12129;SDS011;6128;59.340;18.040;2023-11-19T10:39:55;2.70;;;2.47;;
12129;SDS011;6128;59.340;18.040;2023-11-19T10:42:23;3.67;;;2.80;;
12129;SDS011;6128;59.340;18.040;2023-11-19T10:44:50;3.30;;;2.77;;
12129;SDS011;6128;59.340;18.040;2023-11-19T10:47:19;3.00;;;2.80;;
12129;SDS011;6128;59.340;18.040;2023-11-19T10:49:49;2.40;;;2.20;;
12129;SDS011;6128;59.340;18.040;2023-11-19T10:52:17;2.23;;;2.10;;
12129;SDS011;6128;59.340;18.040;2023-11-19T10:54:46;2.57;;;2.37;;
12129;SDS011;6128;59.340;18.040;2023-11-19T10:57:19;2.50;;;2.30;;
12129;SDS011;6128;59.340;18.040;2023-11-19T10:59:47;2.00;;;1.90;;
12129;SDS011;6128;59.340;18.040;2023-11-19T11:02:18;2.30;;;2.10;;
12129;SDS011;6128;59.340;18.040;2023-11-19T11:04:51;2.07;;;1.80;;
12129;SDS011;6128;59.340;18.040;2023-11-19T11:07:19;1.83;;;1.73;;
12129;SDS011;6128;59.340;18.040;2023-11-19T11:09:51;2.63;;;1.80;;
12129;SDS011;6128;59.340;18.040;2023-11-19T11:12:19;2.13;;;1.70;;
12129;SDS011;6128;59.340;18.040;2023-11-19T11:14:50;2.43;;;2.10;;
12129;SDS011;6128;59.340;18.040;2023-11-19T11:17:19;2.20;;;1.73;;
12129;SDS011;6128;59.340;18.040;2023-11-19T11:19:51;9.03;;;7.40;;
12129;SDS011;6128;59.340;18.040;2023-11-19T11:22:18;3.40;;;2.67;;
12129;SDS011;6128;59.340;18.040;2023-11-19T11:27:50;2.77;;;2.00;;
12129;SDS011;6128;59.340;18.040;2023-11-19T11:30:43;2.40;;;2.20;;
12129;SDS011;6128;59.340;18.040;2023-11-19T11:33:29;3.50;;;2.23;;
12129;SDS011;6128;59.340;18.040;2023-11-19T11:36:06;2.97;;;2.60;;
12129;SDS011;6128;59.340;18.040;2023-11-19T11:38:40;3.50;;;2.90;;
12129;SDS011;6128;59.340;18.040;2023-11-19T11:41:20;2.77;;;2.40;;
12129;SDS011;6128;59.340;18.040;2023-11-19T11:43:50;3.37;;;2.83;;
12129;SDS011;6128;59.340;18.040;2023-11-19T11:49:26;2.10;;;1.90;;
12129;SDS011;6128;59.340;18.040;2023-11-19T11:52:02;1.97;;;1.77;;
12129;SDS011;6128;59.340;18.040;2023-11-19T11:54:30;2.23;;;2.00;;
12129;SDS011;6128;59.340;18.040;2023-11-19T11:57:01;1.93;;;1.83;;
12129;SDS011;6128;59.340;18.040;2023-11-19T11:59:34;2.90;;;2.40;;
12129;SDS011;6128;59.340;18.040;2023-11-19T12:02:13;2.67;;;2.20;;
12129;SDS011;6128;59.340;18.040;2023-11-19T12:04:43;2.20;;;2.00;;
12129;SDS011;6128;59.340;18.040;2023-11-19T12:07:13;1.90;;;1.80;;
12129;SDS011;6128;59.340;18.040;2023-11-19T12:09:42;2.77;;;2.57;;
12129;SDS011;6128;59.340;18.040;2023-11-19T12:12:18;2.20;;;2.10;;
12129;SDS011;6128;59.340;18.040;2023-11-19T12:15:00;2.77;;;1.87;;
12129;SDS011;6128;59.340;18.040;2023-11-19T12:17:36;1.90;;;1.80;;
12129;SDS011;6128;59.340;18.040;2023-11-19T12:20:11;1.97;;;1.77;;
12129;SDS011;6128;59.340;18.040;2023-11-19T12:22:38;2.27;;;2.07;;
12129;SDS011;6128;59.340;18.040;2023-11-19T12:25:06;2.77;;;2.10;;
12129;SDS011;6128;59.340;18.040;2023-11-19T12:27:35;2.57;;;2.33;;
12129;SDS011;6128;59.340;18.040;2023-11-19T12:30:03;2.63;;;2.40;;
12129;SDS011;6128;59.340;18.040;2023-11-19T12:32:37;2.27;;;2.10;;
12129;SDS011;6128;59.340;18.040;2023-11-19T12:35:06;2.27;;;1.90;;
12129;SDS011;6128;59.340;18.040;2023-11-19T12:37:40;2.70;;;2.00;;
12129;SDS011;6128;59.340;18.040;2023-11-19T12:40:12;3.73;;;2.40;;
12129;SDS011;6128;59.340;18.040;2023-11-19T12:42:41;2.67;;;2.47;;
12129;SDS011;6128;59.340;18.040;2023-11-19T12:45:08;2.47;;;2.27;;
12129;SDS011;6128;59.340;18.040;2023-11-19T12:47:37;3.93;;;2.30;;
12129;SDS011;6128;59.340;18.040;2023-11-19T12:50:05;2.10;;;1.90;;
12129;SDS011;6128;59.340;18.040;2023-11-19T12:52:33;2.20;;;2.00;;
12129;SDS011;6128;59.340;18.040;2023-11-19T12:55:02;2.23;;;2.03;;
12129;SDS011;6128;59.340;18.040;2023-11-19T12:57:37;4.60;;;2.30;;
12129;SDS011;6128;59.340;18.040;2023-11-19T13:00:06;2.20;;;2.00;;
12129;SDS011;6128;59.340;18.040;2023-11-19T13:02:45;2.00;;;1.90;;
12129;SDS011;6128;59.340;18.040;2023-11-19T13:05:20;2.60;;;1.90;;
12129;SDS011;6128;59.340;18.040;2023-11-19T13:07:57;2.23;;;1.93;;
12129;SDS011;6128;59.340;18.040;2023-11-19T13:10:27;2.10;;;1.90;;
12129;SDS011;6128;59.340;18.040;2023-11-19T13:13:02;3.03;;;1.50;;
12129;SDS011;6128;59.340;18.040;2023-11-19T13:15:30;4.57;;;1.80;;
12129;SDS011;6128;59.340;18.040;2023-11-19T13:17:57;2.63;;;1.97;;
12129;SDS011;6128;59.340;18.040;2023-11-19T13:20:25;2.00;;;1.80;;
12129;SDS011;6128;59.340;18.040;2023-11-19T13:22:56;2.50;;;1.80;;
12129;SDS011;6128;59.340;18.040;2023-11-19T13:25:23;2.93;;;1.93;;
12129;SDS011;6128;59.340;18.040;2023-11-19T13:27:52;5.57;;;2.40;;
12129;SDS011;6128;59.340;18.040;2023-11-19T13:30:19;2.37;;;2.03;;
12129;SDS011;6128;59.340;18.040;2023-11-19T13:32:47;2.50;;;2.00;;
12129;SDS011;6128;59.340;18.040;2023-11-19T13:35:15;4.13;;;2.60;;
12129;SDS011;6128;59.340;18.040;2023-11-19T13:37:42;4.17;;;2.03;;
12129;SDS011;6128;59.340;18.040;2023-11-19T13:40:10;3.47;;;3.13;;
12129;SDS011;6128;59.340;18.040;2023-11-19T13:42:40;3.07;;;2.20;;
12129;SDS011;6128;59.340;18.040;2023-11-19T13:45:10;4.20;;;2.80;;
12129;SDS011;6128;59.340;18.040;2023-11-19T13:47:38;3.97;;;2.40;;
12129;SDS011;6128;59.340;18.040;2023-11-19T13:50:07;3.10;;;2.60;;
12129;SDS011;6128;59.340;18.040;2023-11-19T13:52:36;2.40;;;2.23;;
12129;SDS011;6128;59.340;18.040;2023-11-19T13:55:05;2.43;;;2.13;;
12129;SDS011;6128;59.340;18.040;2023-11-19T13:57:34;3.17;;;2.03;;
12129;SDS011;6128;59.340;18.040;2023-11-19T14:00:01;2.17;;;1.97;;
12129;SDS011;6128;59.340;18.040;2023-11-19T14:02:33;3.23;;;2.40;;
12129;SDS011;6128;59.340;18.040;2023-11-19T14:05:00;2.63;;;2.30;;
12129;SDS011;6128;59.340;18.040;2023-11-19T14:07:27;4.30;;;2.63;;
12129;SDS011;6128;59.340;18.040;2023-11-19T14:09:55;4.07;;;2.67;;
12129;SDS011;6128;59.340;18.040;2023-11-19T14:12:22;3.07;;;2.10;;
12129;SDS011;6128;59.340;18.040;2023-11-19T14:14:49;2.30;;;2.10;;
12129;SDS011;6128;59.340;18.040;2023-11-19T14:17:16;2.10;;;1.90;;
12129;SDS011;6128;59.340;18.040;2023-11-19T14:19:45;2.70;;;2.00;;
12129;SDS011;6128;59.340;18.040;2023-11-19T14:22:12;3.17;;;2.87;;
12129;SDS011;6128;59.340;18.040;2023-11-19T14:24:39;2.10;;;1.90;;
12129;SDS011;6128;59.340;18.040;2023-11-19T14:27:07;3.30;;;2.10;;
12129;SDS011;6128;59.340;18.040;2023-11-19T14:29:35;2.90;;;2.23;;
12129;SDS011;6128;59.340;18.040;2023-11-19T14:32:02;3.13;;;2.13;;
12129;SDS011;6128;59.340;18.040;2023-11-19T14:34:29;2.30;;;2.10;;
12129;SDS011;6128;59.340;18.040;2023-11-19T14:36:58;2.50;;;2.30;;
12129;SDS011;6128;59.340;18.040;2023-11-19T14:39:26;2.43;;;1.97;;
12129;SDS011;6128;59.340;18.040;2023-11-19T14:41:54;2.87;;;2.40;;
12129;SDS011;6128;59.340;18.040;2023-11-19T14:44:23;3.13;;;1.97;;
12129;SDS011;6128;59.340;18.040;2023-11-19T14:46:50;3.27;;;2.03;;
12129;SDS011;6128;59.340;18.040;2023-11-19T14:49:17;2.77;;;2.30;;
12129;SDS011;6128;59.340;18.040;2023-11-19T14:51:44;4.03;;;2.17;;
12129;SDS011;6128;59.340;18.040;2023-11-19T14:54:13;1.90;;;1.80;;
12129;SDS011;6128;59.340;18.040;2023-11-19T14:56:41;2.70;;;2.30;;
12129;SDS011;6128;59.340;18.040;2023-11-19T14:59:08;3.90;;;2.50;;
12129;SDS011;6128;59.340;18.040;2023-11-19T15:01:35;2.13;;;2.03;;
12129;SDS011;6128;59.340;18.040;2023-11-19T15:04:03;4.33;;;2.67;;